createdAt,value
2022-11-22T00:00:44.456Z,99.99
2022-11-22T00:01:44.518Z,99.99
2022-11-22T00:02:44.442Z,99.99
2022-11-22T00:03:44.454Z,99.99
2022-11-22T00:04:44.414Z,99.99
2022-11-22T00:05:44.430Z,99.99
2022-11-22T00:06:44.391Z,99.99
2022-11-22T00:07:44.477Z,99.99
2022-11-22T00:08:44.381Z,99.99
2022-11-22T00:09:44.386Z,99.99
2022-11-22T00:10:44.350Z,99.99
2022-11-22T00:11:44.388Z,99.99
2022-11-22T00:12:44.334Z,99.99
2022-11-22T00:13:44.352Z,99.99
2022-11-22T00:14:44.328Z,99.99
2022-11-22T00:15:44.330Z,99.99
2022-11-22T00:16:44.291Z,99.99
2022-11-22T00:17:44.314Z,99.99
2022-11-22T00:18:44.282Z,99.99
2022-11-22T00:19:44.290Z,99.99
2022-11-22T00:20:44.248Z,99.99
2022-11-22T00:21:44.273Z,99.99
2022-11-22T00:22:45.098Z,99.99
2022-11-22T00:23:44.247Z,99.99
2022-11-22T00:24:44.208Z,99.99
2022-11-22T00:25:44.227Z,99.99
2022-11-22T00:26:44.195Z,99.99
2022-11-22T00:27:44.212Z,99.99
2022-11-22T00:28:44.170Z,99.99
2022-11-22T00:29:44.201Z,99.99
2022-11-22T00:30:44.148Z,99.99
2022-11-22T00:31:44.182Z,99.99
2022-11-22T00:32:44.145Z,99.99
2022-11-22T00:33:44.135Z,99.99
2022-11-22T00:34:44.121Z,99.99
2022-11-22T00:35:44.137Z,99.99
2022-11-22T00:36:44.088Z,99.99
2022-11-22T00:37:44.115Z,99.99
2022-11-22T00:38:44.077Z,99.99
2022-11-22T00:39:44.073Z,99.99
2022-11-22T00:40:44.083Z,99.99
2022-11-22T00:41:44.091Z,99.99
2022-11-22T00:42:44.035Z,99.99
2022-11-22T00:43:44.054Z,99.99
2022-11-22T00:44:44.018Z,99.96
2022-11-22T00:45:44.022Z,99.91
2022-11-22T00:46:43.981Z,99.81
2022-11-22T00:47:44.012Z,99.91
2022-11-22T00:48:44.001Z,99.60
2022-11-22T00:49:43.970Z,99.60
2022-11-22T00:50:43.940Z,99.60
2022-11-22T00:51:43.947Z,99.40
2022-11-22T00:52:43.947Z,99.50
2022-11-22T00:53:43.955Z,99.50
2022-11-22T00:54:43.912Z,99.50
2022-11-22T00:55:43.924Z,99.60
2022-11-22T00:56:43.896Z,99.50
2022-11-22T00:57:43.895Z,99.40
2022-11-22T00:58:43.869Z,99.40
2022-11-22T00:59:43.892Z,99.50
2022-11-22T01:00:43.918Z,99.50
2022-11-22T01:01:43.940Z,99.40
2022-11-22T01:02:43.822Z,99.50
2022-11-22T01:03:43.844Z,99.29
2022-11-22T01:04:43.815Z,99.29
2022-11-22T01:05:43.842Z,99.50
2022-11-22T01:06:43.780Z,99.40
2022-11-22T01:07:43.861Z,99.29
2022-11-22T01:08:43.764Z,99.40
2022-11-22T01:09:43.789Z,99.60
2022-11-22T01:10:43.741Z,99.81
2022-11-22T01:11:43.759Z,99.60
2022-11-22T01:12:43.729Z,99.81
2022-11-22T01:13:43.745Z,99.50
2022-11-22T01:14:43.702Z,99.29
2022-11-22T01:15:43.733Z,99.40
2022-11-22T01:16:43.677Z,99.60
2022-11-22T01:17:43.699Z,99.50
2022-11-22T01:18:42.695Z,99.50
2022-11-22T01:19:43.663Z,99.50
2022-11-22T01:20:43.639Z,99.60
2022-11-22T01:21:43.676Z,99.60
2022-11-22T01:22:43.623Z,99.60
2022-11-22T01:23:43.629Z,99.81
2022-11-22T01:24:43.604Z,99.71
2022-11-22T01:25:43.627Z,99.60
2022-11-22T01:26:43.601Z,99.71
2022-11-22T01:27:43.628Z,99.81
2022-11-22T01:28:43.568Z,99.60
2022-11-22T01:29:43.584Z,99.29
2022-11-22T01:30:43.549Z,99.08
2022-11-22T01:31:43.571Z,99.08
2022-11-22T01:32:43.515Z,98.87
2022-11-22T01:33:43.538Z,98.93
2022-11-22T01:34:43.511Z,98.62
2022-11-22T01:35:43.511Z,98.52
2022-11-22T01:36:43.499Z,98.31
2022-11-22T01:37:43.504Z,98.20
2022-11-22T01:38:43.470Z,97.78
2022-11-22T01:39:43.460Z,97.64
2022-11-22T01:40:43.460Z,97.12
2022-11-22T01:41:43.449Z,96.91
2022-11-22T01:42:43.427Z,96.59
2022-11-22T01:43:43.425Z,96.28
2022-11-22T01:44:43.395Z,96.24
2022-11-22T01:45:43.425Z,96.14
2022-11-22T01:46:43.395Z,95.93
2022-11-22T01:47:43.408Z,95.72
2022-11-22T01:48:43.365Z,95.83
2022-11-22T01:49:43.376Z,95.51
2022-11-22T01:50:43.335Z,95.30
2022-11-22T01:51:43.354Z,95.30
2022-11-22T01:52:43.322Z,95.30
2022-11-22T01:53:43.344Z,95.30
2022-11-22T01:54:43.318Z,95.30
2022-11-22T01:55:43.307Z,95.09
2022-11-22T01:56:43.290Z,95.09
2022-11-22T01:57:43.294Z,94.89
2022-11-22T01:58:43.280Z,94.89
2022-11-22T01:59:43.286Z,94.89
2022-11-22T02:00:43.253Z,94.99
2022-11-22T02:01:43.289Z,94.99
2022-11-22T02:02:43.213Z,94.89
2022-11-22T02:03:43.222Z,94.89
2022-11-22T02:04:43.202Z,94.68
2022-11-22T02:05:43.211Z,94.78
2022-11-22T02:06:43.176Z,94.68
2022-11-22T02:07:43.267Z,94.78
2022-11-22T02:08:43.176Z,94.78
2022-11-22T02:09:43.182Z,94.78
2022-11-22T02:10:43.128Z,94.89
2022-11-22T02:11:43.151Z,94.68
2022-11-22T02:12:43.111Z,94.78
2022-11-22T02:13:43.238Z,94.78
2022-11-22T02:14:43.129Z,94.78
2022-11-22T02:15:43.109Z,94.99
2022-11-22T02:16:43.068Z,94.78
2022-11-22T02:17:43.089Z,94.78
2022-11-22T02:18:43.078Z,94.78
2022-11-22T02:19:43.056Z,95.09
2022-11-22T02:20:43.077Z,94.99
2022-11-22T02:21:43.048Z,94.99
2022-11-22T02:22:43.023Z,94.68
2022-11-22T02:23:43.003Z,94.89
2022-11-22T02:24:43.020Z,94.78
2022-11-22T02:25:42.983Z,94.68
2022-11-22T02:26:43.020Z,94.47
2022-11-22T02:27:43.001Z,94.68
2022-11-22T02:28:42.968Z,94.68
2022-11-22T02:29:42.947Z,94.68
2022-11-22T02:30:42.958Z,94.57
2022-11-22T02:31:42.917Z,94.78
2022-11-22T02:32:42.947Z,94.47
2022-11-22T02:33:42.921Z,94.37
2022-11-22T02:34:42.949Z,94.68
2022-11-22T02:35:42.879Z,94.57
2022-11-22T02:36:42.895Z,94.47
2022-11-22T02:37:42.888Z,94.47
2022-11-22T02:38:42.876Z,94.57
2022-11-22T02:39:42.844Z,94.47
2022-11-22T02:40:42.845Z,94.57
2022-11-22T02:41:42.823Z,94.37
2022-11-22T02:42:42.848Z,94.06
2022-11-22T02:43:42.809Z,94.12
2022-11-22T02:44:42.825Z,94.12
2022-11-22T02:45:42.790Z,94.01
2022-11-22T02:46:42.799Z,93.80
2022-11-22T02:47:42.775Z,94.32
2022-11-22T02:48:42.830Z,94.64
2022-11-22T02:49:42.751Z,94.84
2022-11-22T02:50:42.745Z,94.74
2022-11-22T02:51:42.723Z,94.22
2022-11-22T02:52:42.737Z,94.22
2022-11-22T02:53:42.704Z,94.12
2022-11-22T02:54:42.712Z,93.80
2022-11-22T02:55:42.687Z,94.22
2022-11-22T02:56:42.694Z,93.80
2022-11-22T02:57:42.653Z,94.12
2022-11-22T02:58:42.685Z,94.07
2022-11-22T02:59:42.657Z,94.18
2022-11-22T03:00:42.720Z,93.97
2022-11-22T03:01:42.614Z,94.18
2022-11-22T03:02:42.636Z,93.97
2022-11-22T03:03:42.596Z,93.87
2022-11-22T03:04:42.633Z,94.07
2022-11-22T03:05:42.579Z,93.97
2022-11-22T03:06:42.584Z,93.76
2022-11-22T03:07:42.627Z,93.87
2022-11-22T03:08:42.577Z,94.07
2022-11-22T03:09:42.541Z,94.07
2022-11-22T03:10:41.568Z,94.07
2022-11-22T03:11:42.511Z,94.12
2022-11-22T03:12:42.536Z,94.22
2022-11-22T03:13:42.498Z,94.64
2022-11-22T03:14:42.498Z,94.53
2022-11-22T03:15:42.484Z,94.43
2022-11-22T03:16:42.478Z,94.32
2022-11-22T03:17:42.474Z,94.01
2022-11-22T03:18:42.464Z,94.01
2022-11-22T03:19:42.434Z,94.18
2022-11-22T03:20:42.472Z,94.07
2022-11-22T03:21:42.431Z,94.07
2022-11-22T03:22:42.439Z,94.38
2022-11-22T03:23:42.411Z,94.38
2022-11-22T03:24:42.429Z,94.28
2022-11-22T03:25:42.386Z,94.38
2022-11-22T03:26:42.402Z,94.28
2022-11-22T03:27:42.358Z,94.28
2022-11-22T03:28:42.375Z,94.38
2022-11-22T03:29:42.336Z,93.97
2022-11-22T03:30:42.354Z,93.97
2022-11-22T03:31:42.320Z,94.18
2022-11-22T03:32:42.335Z,93.76
2022-11-22T03:33:42.332Z,93.97
2022-11-22T03:34:42.299Z,93.97
2022-11-22T03:35:42.269Z,94.07
2022-11-22T03:36:42.310Z,93.87
2022-11-22T03:37:42.247Z,93.87
2022-11-22T03:38:42.396Z,94.28
2022-11-22T03:39:42.230Z,93.97
2022-11-22T03:40:42.259Z,93.87
2022-11-22T03:41:42.234Z,94.28
2022-11-22T03:42:42.247Z,93.82
2022-11-22T03:43:42.239Z,93.72
2022-11-22T03:44:42.197Z,93.62
2022-11-22T03:45:42.171Z,93.62
2022-11-22T03:46:42.185Z,93.93
2022-11-22T03:47:42.164Z,94.13
2022-11-22T03:48:42.177Z,93.41
2022-11-22T03:49:42.132Z,92.88
2022-11-22T03:50:42.131Z,93.20
2022-11-22T03:51:42.110Z,93.30
2022-11-22T03:52:42.130Z,93.10
2022-11-22T03:53:42.151Z,92.88
2022-11-22T03:54:42.106Z,92.99
2022-11-22T03:55:42.083Z,92.99
2022-11-22T03:56:42.086Z,93.41
2022-11-22T03:57:42.043Z,93.51
2022-11-22T03:58:42.081Z,93.82
2022-11-22T03:59:42.029Z,93.93
2022-11-22T04:00:42.027Z,93.82
2022-11-22T04:01:42.046Z,93.62
2022-11-22T04:02:42.022Z,93.72
2022-11-22T04:03:42.025Z,93.93
2022-11-22T04:04:41.996Z,94.13
2022-11-22T04:05:41.975Z,93.41
2022-11-22T04:06:41.983Z,93.72
2022-11-22T04:07:42.023Z,93.93
2022-11-22T04:08:42.052Z,93.82
2022-11-22T04:09:41.925Z,93.41
2022-11-22T04:10:41.931Z,93.30
2022-11-22T04:11:41.909Z,93.20
2022-11-22T04:12:41.929Z,93.20
2022-11-22T04:13:41.888Z,93.10
2022-11-22T04:14:41.883Z,92.88
2022-11-22T04:15:41.857Z,92.94
2022-11-22T04:16:41.892Z,93.05
2022-11-22T04:17:41.866Z,92.84
2022-11-22T04:18:41.875Z,93.05
2022-11-22T04:19:41.815Z,92.63
2022-11-22T04:20:41.836Z,92.74
2022-11-22T04:21:41.798Z,92.32
2022-11-22T04:22:41.818Z,92.32
2022-11-22T04:23:41.826Z,92.63
2022-11-22T04:24:41.793Z,92.53
2022-11-22T04:25:41.755Z,92.94
2022-11-22T04:26:41.788Z,92.84
2022-11-22T04:27:41.737Z,92.74
2022-11-22T04:29:08.058Z,92.74
2022-11-22T04:29:41.727Z,92.74
2022-11-22T04:30:41.719Z,92.94
2022-11-22T04:31:41.698Z,93.05
2022-11-22T04:32:41.712Z,93.16
2022-11-22T04:33:41.687Z,93.05
2022-11-22T04:34:41.691Z,92.63
2022-11-22T04:35:41.657Z,92.74
2022-11-22T04:36:41.662Z,92.63
2022-11-22T04:37:41.629Z,92.74
2022-11-22T04:38:41.662Z,92.74
2022-11-22T04:39:41.622Z,92.63
2022-11-22T04:40:41.637Z,92.53
2022-11-22T04:41:41.627Z,92.63
2022-11-22T04:42:41.593Z,92.74
2022-11-22T04:43:41.592Z,92.84
2022-11-22T04:44:41.583Z,92.74
2022-11-22T04:45:41.545Z,92.63
2022-11-22T04:46:41.550Z,92.53
2022-11-22T04:47:43.888Z,92.49
2022-11-22T04:48:41.615Z,92.38
2022-11-22T04:49:41.503Z,92.18
2022-11-22T04:50:41.527Z,92.18
2022-11-22T04:51:41.488Z,92.18
2022-11-22T04:52:41.521Z,92.18
2022-11-22T04:53:41.493Z,92.18
2022-11-22T04:54:41.481Z,92.38
2022-11-22T04:55:41.447Z,92.49
2022-11-22T04:56:41.458Z,92.38
2022-11-22T04:57:41.426Z,92.18
2022-11-22T04:58:41.459Z,91.97
2022-11-22T04:59:41.412Z,91.97
2022-11-22T05:00:41.478Z,92.18
2022-11-22T05:01:41.379Z,91.86
2022-11-22T05:02:41.435Z,91.76
2022-11-22T05:03:41.372Z,92.18
2022-11-22T05:04:44.097Z,92.07
2022-11-22T05:05:41.357Z,91.86
2022-11-22T05:06:41.360Z,91.86
2022-11-22T05:07:41.363Z,91.86
2022-11-22T05:08:41.344Z,91.86
2022-11-22T05:09:41.331Z,92.07
2022-11-22T05:10:41.301Z,92.18
2022-11-22T05:11:41.280Z,92.28
2022-11-22T05:12:41.310Z,92.38
2022-11-22T05:13:41.259Z,92.28
2022-11-22T05:14:41.285Z,92.28
2022-11-22T05:15:41.247Z,92.49
2022-11-22T05:16:41.241Z,92.59
2022-11-22T05:17:41.224Z,92.55
2022-11-22T05:18:41.271Z,92.49
2022-11-22T05:19:44.992Z,92.76
2022-11-22T05:20:41.208Z,92.66
2022-11-22T05:21:41.182Z,92.97
2022-11-22T05:22:41.188Z,92.97
2022-11-22T05:23:41.147Z,92.97
2022-11-22T05:24:41.168Z,92.86
2022-11-22T05:25:41.131Z,92.97
2022-11-22T05:26:41.153Z,92.86
2022-11-22T05:27:41.133Z,93.07
2022-11-22T05:28:41.156Z,93.18
2022-11-22T05:29:41.084Z,93.18
2022-11-22T05:30:41.108Z,93.28
2022-11-22T05:31:41.083Z,93.07
2022-11-22T05:32:41.069Z,93.07
2022-11-22T05:33:41.045Z,93.18
2022-11-22T05:34:41.067Z,93.59
2022-11-22T05:35:41.019Z,93.80
2022-11-22T05:36:41.058Z,94.32
2022-11-22T05:37:41.007Z,94.53
2022-11-22T05:38:41.034Z,94.73
2022-11-22T05:39:40.980Z,94.73
2022-11-22T05:40:41.003Z,95.04
2022-11-22T05:41:40.987Z,95.04
2022-11-22T05:42:40.990Z,95.25
2022-11-22T05:43:40.946Z,95.25
2022-11-22T05:44:40.950Z,95.25
2022-11-22T05:45:40.922Z,95.36
2022-11-22T05:46:40.945Z,94.63
2022-11-22T05:47:40.895Z,94.63
2022-11-22T05:48:40.932Z,94.63
2022-11-22T05:49:40.873Z,94.53
2022-11-22T05:50:40.913Z,94.53
2022-11-22T05:51:40.874Z,94.63
2022-11-22T05:52:40.858Z,94.53
2022-11-22T05:53:40.835Z,94.42
2022-11-22T05:54:40.870Z,93.90
2022-11-22T05:55:40.810Z,94.01
2022-11-22T05:56:40.835Z,94.32
2022-11-22T05:57:40.788Z,94.84
2022-11-22T05:58:40.798Z,94.73
2022-11-22T05:59:44.117Z,94.42
2022-11-22T06:00:40.787Z,94.32
2022-11-22T06:01:40.832Z,94.11
2022-11-22T06:02:40.812Z,94.42
2022-11-22T06:03:40.725Z,94.63
2022-11-22T06:04:40.773Z,94.84
2022-11-22T06:05:40.714Z,95.04
2022-11-22T06:06:40.735Z,95.04
2022-11-22T06:07:40.774Z,94.73
2022-11-22T06:08:40.708Z,95.04
2022-11-22T06:09:40.678Z,95.31
2022-11-22T06:10:40.686Z,95.20
2022-11-22T06:11:40.645Z,94.48
2022-11-22T06:12:40.657Z,94.37
2022-11-22T06:13:40.633Z,94.68
2022-11-22T06:14:43.467Z,95.20
2022-11-22T06:15:40.570Z,95.31
2022-11-22T06:16:40.550Z,94.79
2022-11-22T06:17:40.541Z,94.37
2022-11-22T06:18:40.606Z,94.27
2022-11-22T06:19:40.528Z,94.17
2022-11-22T06:20:40.515Z,94.37
2022-11-22T06:21:40.572Z,94.37
2022-11-22T06:22:40.513Z,94.58
2022-11-22T06:23:40.458Z,93.65
2022-11-22T06:24:40.543Z,93.65
2022-11-22T06:25:40.491Z,93.54
2022-11-22T06:26:40.468Z,93.33
2022-11-22T06:27:40.437Z,93.33
2022-11-22T06:28:40.444Z,93.02
2022-11-22T06:29:40.406Z,93.44
2022-11-22T06:30:40.413Z,93.29
2022-11-22T06:31:40.379Z,93.33
2022-11-22T06:32:40.407Z,93.19
2022-11-22T06:33:40.362Z,93.40
2022-11-22T06:34:40.375Z,93.44
2022-11-22T06:35:40.336Z,93.33
2022-11-22T06:36:40.338Z,93.33
2022-11-22T06:37:40.316Z,93.44
2022-11-22T06:38:40.343Z,93.33
2022-11-22T06:39:40.330Z,93.33
2022-11-22T06:40:40.278Z,93.44
2022-11-22T06:41:40.287Z,93.60
2022-11-22T06:42:40.324Z,93.85
2022-11-22T06:43:45.111Z,94.02
2022-11-22T06:44:40.256Z,93.96
2022-11-22T06:45:40.339Z,93.96
2022-11-22T06:46:40.220Z,93.81
2022-11-22T06:47:40.226Z,94.23
2022-11-22T06:48:40.200Z,94.12
2022-11-22T06:49:40.230Z,94.33
2022-11-22T06:50:40.213Z,94.12
2022-11-22T06:51:40.182Z,94.33
2022-11-22T06:52:40.172Z,94.12
2022-11-22T06:53:47.383Z,94.12
2022-11-22T06:54:40.141Z,94.33
2022-11-22T06:56:01.011Z,94.33
2022-11-22T06:56:40.119Z,94.33
2022-11-22T06:57:40.150Z,94.33
2022-11-22T06:58:40.123Z,94.23
2022-11-22T06:59:40.115Z,94.33
2022-11-22T07:00:40.086Z,94.43
2022-11-22T07:01:40.176Z,94.64
2022-11-22T07:02:40.054Z,94.23
2022-11-22T07:03:40.099Z,93.91
2022-11-22T07:04:56.107Z,93.81
2022-11-22T07:05:40.070Z,94.12
2022-11-22T07:06:40.006Z,93.91
2022-11-22T07:07:40.070Z,93.71
2022-11-22T07:08:40.040Z,93.91
2022-11-22T07:09:40.054Z,94.02
2022-11-22T07:10:39.976Z,93.91
2022-11-22T07:11:39.994Z,93.71
2022-11-22T07:12:40.013Z,93.81
2022-11-22T07:13:39.952Z,94.02
2022-11-22T07:14:39.984Z,93.91
2022-11-22T07:15:40.062Z,94.12
2022-11-22T07:16:39.950Z,94.02
2022-11-22T07:17:39.909Z,93.91
2022-11-22T07:18:39.880Z,93.91
2022-11-22T07:19:39.887Z,93.66
2022-11-22T07:20:39.859Z,93.77
2022-11-22T07:21:39.896Z,93.56
2022-11-22T07:22:39.858Z,93.56
2022-11-22T07:23:39.840Z,93.77
2022-11-22T07:24:39.816Z,93.98
2022-11-22T07:25:39.869Z,94.08
2022-11-22T07:26:39.842Z,94.08
2022-11-22T07:27:39.807Z,93.77
2022-11-22T07:28:39.791Z,93.56
2022-11-22T07:29:39.795Z,93.66
2022-11-22T07:30:43.869Z,93.46
2022-11-22T07:31:39.789Z,93.52
2022-11-22T07:32:39.748Z,93.83
2022-11-22T07:33:39.751Z,93.83
2022-11-22T07:34:39.728Z,93.62
2022-11-22T07:35:39.722Z,93.10
2022-11-22T07:36:39.688Z,92.80
2022-11-22T07:37:39.714Z,93.00
2022-11-22T07:38:39.689Z,93.00
2022-11-22T07:39:39.671Z,93.00
2022-11-22T07:40:39.689Z,93.10
2022-11-22T07:41:39.665Z,92.90
2022-11-22T07:42:39.656Z,92.80
2022-11-22T07:43:39.647Z,92.85
2022-11-22T07:44:46.092Z,92.96
2022-11-22T07:45:39.610Z,92.96
2022-11-22T07:46:39.579Z,92.76
2022-11-22T07:47:39.587Z,92.55
2022-11-22T07:48:39.590Z,92.55
2022-11-22T07:49:39.582Z,92.34
2022-11-22T07:50:39.547Z,92.13
2022-11-22T07:51:39.559Z,92.55
2022-11-22T07:52:39.519Z,92.24
2022-11-22T07:53:39.542Z,92.03
2022-11-22T07:54:39.521Z,91.78
2022-11-22T07:55:39.517Z,91.67
2022-11-22T07:56:39.476Z,91.99
2022-11-22T07:57:39.498Z,91.67
2022-11-22T07:58:39.495Z,91.16
2022-11-22T07:59:39.475Z,91.26
2022-11-22T08:00:39.446Z,91.16
2022-11-22T08:01:39.453Z,91.36
2022-11-22T08:02:39.416Z,91.05
2022-11-22T08:03:39.422Z,91.05
2022-11-22T08:04:39.423Z,91.16
2022-11-22T08:05:39.400Z,91.26
2022-11-22T08:06:39.375Z,91.47
2022-11-22T08:07:39.438Z,91.67
2022-11-22T08:08:39.363Z,91.36
2022-11-22T08:09:39.394Z,91.84
2022-11-22T08:10:39.330Z,91.94
2022-11-22T08:11:39.354Z,91.74
2022-11-22T08:12:39.311Z,91.32
2022-11-22T08:13:39.343Z,91.28
2022-11-22T08:14:39.296Z,91.17
2022-11-22T08:15:39.311Z,90.45
2022-11-22T08:16:39.275Z,90.35
2022-11-22T08:17:39.278Z,90.14
2022-11-22T08:18:39.252Z,90.35
2022-11-22T08:19:39.279Z,90.45
2022-11-22T08:20:39.230Z,90.14
2022-11-22T08:21:39.246Z,90.35
2022-11-22T08:22:39.206Z,90.20
2022-11-22T08:23:39.236Z,90.10
2022-11-22T08:24:39.201Z,90.10
2022-11-22T08:25:39.193Z,90.10
2022-11-22T08:26:39.179Z,90.10
2022-11-22T08:27:39.167Z,89.86
2022-11-22T08:28:39.181Z,89.95
2022-11-22T08:29:39.159Z,89.86
2022-11-22T08:30:39.131Z,89.54
2022-11-22T08:31:39.142Z,89.23
2022-11-22T08:32:39.100Z,89.19
2022-11-22T08:33:39.109Z,88.98
2022-11-22T08:34:44.230Z,88.68
2022-11-22T08:35:39.114Z,88.57
2022-11-22T08:36:39.094Z,88.37
2022-11-22T08:37:39.066Z,88.32
2022-11-22T08:38:39.042Z,87.81
2022-11-22T08:39:39.058Z,87.81
2022-11-22T08:40:41.145Z,87.81
2022-11-22T08:41:39.046Z,87.60
2022-11-22T08:42:38.997Z,87.05
2022-11-22T08:43:39.014Z,86.84
2022-11-22T08:44:38.977Z,86.74
2022-11-22T08:45:38.991Z,86.84
2022-11-22T08:46:38.964Z,87.15
2022-11-22T08:47:38.968Z,86.80
2022-11-22T08:48:38.945Z,86.18
2022-11-22T08:49:38.941Z,85.97
2022-11-22T08:50:38.923Z,85.63
2022-11-22T08:51:38.920Z,85.22
2022-11-22T08:52:38.903Z,85.42
2022-11-22T08:53:38.912Z,85.83
2022-11-22T08:54:38.883Z,85.42
2022-11-22T08:55:38.877Z,85.63
2022-11-22T08:56:38.849Z,85.31
2022-11-22T08:57:38.886Z,85.11
2022-11-22T08:58:38.836Z,84.66
2022-11-22T08:59:38.883Z,84.39
2022-11-22T09:00:38.809Z,84.35
2022-11-22T09:01:38.852Z,84.77
2022-11-22T09:02:38.812Z,84.80
2022-11-22T09:03:38.809Z,84.80
2022-11-22T09:04:38.774Z,85.07
2022-11-22T09:08:24.110Z,85.28
2022-11-22T09:08:31.407Z,84.66
2022-11-22T09:09:37.825Z,84.97
2022-11-22T09:10:29.071Z,84.97
2022-11-22T09:11:29.033Z,85.49
2022-11-22T09:12:29.044Z,84.97
2022-11-22T09:13:29.037Z,84.11
2022-11-22T09:14:29.092Z,84.05
2022-11-22T09:15:28.991Z,84.11
2022-11-22T09:16:29.005Z,84.31
2022-11-22T09:17:28.973Z,83.45
2022-11-22T09:18:28.976Z,82.83
2022-11-22T09:19:29.189Z,82.28
2022-11-22T09:20:28.955Z,81.97
2022-11-22T09:21:28.944Z,81.97
2022-11-22T09:22:28.946Z,82.24
2022-11-22T09:23:28.910Z,81.52
2022-11-22T09:24:28.956Z,81.38
2022-11-22T09:25:28.932Z,80.25
2022-11-22T09:26:28.892Z,79.49
2022-11-22T09:27:28.865Z,78.47
2022-11-22T09:28:28.883Z,78.47
2022-11-22T09:29:29.318Z,78.40
2022-11-22T09:30:28.872Z,79.16
2022-11-22T09:31:28.826Z,79.84
2022-11-22T09:32:33.510Z,79.22
2022-11-22T09:33:28.807Z,78.98
2022-11-22T09:34:28.810Z,78.78
2022-11-22T09:35:28.841Z,78.06
2022-11-22T09:36:28.800Z,77.99
2022-11-22T09:37:28.762Z,78.20
2022-11-22T09:38:28.778Z,78.57
2022-11-22T09:39:29.017Z,78.71
2022-11-22T09:40:28.783Z,78.61
2022-11-22T09:41:28.731Z,78.92
2022-11-22T09:42:28.752Z,78.67
2022-11-22T09:43:28.699Z,78.98
2022-11-22T09:44:28.716Z,77.71
2022-11-22T09:45:28.698Z,77.51
2022-11-22T09:46:28.713Z,77.20
2022-11-22T09:47:28.656Z,77.00
2022-11-22T09:48:28.648Z,77.20
2022-11-22T09:49:29.287Z,77.10
2022-11-22T09:50:28.659Z,77.06
2022-11-22T09:51:28.645Z,76.96
2022-11-22T09:52:28.631Z,76.65
2022-11-22T09:53:28.591Z,76.34
2022-11-22T09:54:28.662Z,75.73
2022-11-22T09:55:28.569Z,76.28
2022-11-22T09:56:28.576Z,76.79
2022-11-22T09:57:28.574Z,77.20
2022-11-22T09:58:28.572Z,77.10
2022-11-22T09:59:28.815Z,76.79
2022-11-22T10:00:28.545Z,77.00
2022-11-22T10:01:28.564Z,76.68
2022-11-22T10:02:28.525Z,76.79
2022-11-22T10:03:28.519Z,77.20
2022-11-22T10:04:28.486Z,76.86
2022-11-22T10:05:28.463Z,76.86
2022-11-22T10:06:28.480Z,76.14
2022-11-22T10:07:28.496Z,76.55
2022-11-22T10:08:28.445Z,75.83
2022-11-22T10:09:28.847Z,76.75
2022-11-22T10:10:28.425Z,77.06
2022-11-22T10:11:32.173Z,76.86
2022-11-22T10:12:28.412Z,77.06
2022-11-22T10:13:28.430Z,77.06
2022-11-22T10:14:28.413Z,76.45
2022-11-22T10:15:28.359Z,76.96
2022-11-22T10:16:28.379Z,76.51
2022-11-22T10:17:28.344Z,76.04
2022-11-22T10:18:28.354Z,76.45
2022-11-22T10:19:28.751Z,77.06
2022-11-22T10:20:28.352Z,76.65
2022-11-22T10:21:28.296Z,76.65
2022-11-22T10:22:28.313Z,76.45
2022-11-22T10:23:28.275Z,76.96
2022-11-22T10:24:28.293Z,76.82
2022-11-22T10:25:28.261Z,76.51
2022-11-22T10:26:28.273Z,76.31
2022-11-22T10:27:28.232Z,76.31
2022-11-22T10:28:28.250Z,76.07
2022-11-22T10:29:28.632Z,75.45
2022-11-22T10:30:28.239Z,75.76
2022-11-22T10:31:28.191Z,75.24
2022-11-22T10:32:28.192Z,75.24
2022-11-22T10:33:28.166Z,74.73
2022-11-22T10:34:28.187Z,74.70
2022-11-22T10:35:28.145Z,73.57
2022-11-22T10:36:28.159Z,73.36
2022-11-22T10:37:28.124Z,73.57
2022-11-22T10:38:28.143Z,72.75
2022-11-22T10:39:34.107Z,73.27
2022-11-22T10:40:28.114Z,72.44
2022-11-22T10:41:28.100Z,72.55
2022-11-22T10:42:28.139Z,71.73
2022-11-22T10:43:28.060Z,71.32
2022-11-22T10:44:28.081Z,71.52
2022-11-22T10:45:28.040Z,71.32
2022-11-22T10:46:28.064Z,71.62
2022-11-22T10:47:32.985Z,71.11
2022-11-22T10:48:28.029Z,70.09
2022-11-22T10:49:28.241Z,70.50
2022-11-22T10:50:28.016Z,70.09
2022-11-22T10:51:27.977Z,68.99
2022-11-22T10:52:28.028Z,69.92
2022-11-22T10:53:27.968Z,70.67
2022-11-22T10:54:27.952Z,71.59
2022-11-22T10:55:27.963Z,70.26
2022-11-22T10:56:27.925Z,70.46
2022-11-22T10:57:27.934Z,71.08
2022-11-22T10:58:27.934Z,71.18
2022-11-22T10:59:29.077Z,70.56
2022-11-22T11:00:27.884Z,71.18
2022-11-22T11:01:27.944Z,70.67
2022-11-22T11:02:27.889Z,71.28
2022-11-22T11:03:27.877Z,70.26
2022-11-22T11:04:27.859Z,69.57
2022-11-22T11:05:27.844Z,70.60
2022-11-22T11:06:50.033Z,71.11
2022-11-22T11:07:27.890Z,70.29
2022-11-22T11:08:47.819Z,69.88
2022-11-22T11:10:34.049Z,70.39
2022-11-22T11:11:27.786Z,70.50
2022-11-22T11:12:32.715Z,69.88
2022-11-22T11:13:26.814Z,70.63
2022-11-22T11:14:28.042Z,70.22
2022-11-22T11:15:27.761Z,70.32
2022-11-22T11:16:27.735Z,70.53
2022-11-22T11:17:27.770Z,70.84
2022-11-22T11:18:27.721Z,70.73
2022-11-22T11:19:27.711Z,70.84
2022-11-22T11:20:27.722Z,70.22
2022-11-22T11:21:27.693Z,71.14
2022-11-22T11:22:58.727Z,70.94
2022-11-22T11:23:27.702Z,71.14
2022-11-22T11:24:27.743Z,71.45
2022-11-22T11:25:27.644Z,71.76
2022-11-22T11:26:28.324Z,71.83
2022-11-22T11:27:27.009Z,70.80
2022-11-22T11:28:30.221Z,70.22
2022-11-22T11:29:37.213Z,71.01
2022-11-22T11:30:27.641Z,70.60
2022-11-22T11:31:28.766Z,70.18
2022-11-22T11:32:37.599Z,70.18
2022-11-22T11:33:27.562Z,70.60
2022-11-22T11:34:27.727Z,70.18
2022-11-22T11:35:27.526Z,70.90
2022-11-22T11:36:27.534Z,70.50
2022-11-22T11:37:27.519Z,69.67
2022-11-22T11:38:27.479Z,70.08
2022-11-22T11:39:27.808Z,70.39
2022-11-22T11:40:27.457Z,70.08
2022-11-22T11:41:27.482Z,70.29
2022-11-22T11:42:27.458Z,69.26
2022-11-22T11:43:27.447Z,68.96
2022-11-22T11:44:27.621Z,68.96
2022-11-22T11:45:27.434Z,68.85
2022-11-22T11:46:27.395Z,68.75
2022-11-22T11:47:27.435Z,68.48
2022-11-22T11:48:27.404Z,68.78
2022-11-22T11:49:27.380Z,69.91
2022-11-22T11:50:27.444Z,70.63
2022-11-22T11:51:27.356Z,70.12
2022-11-22T11:52:27.352Z,70.32
2022-11-22T11:53:27.457Z,69.19
2022-11-22T11:54:27.310Z,68.68
2022-11-22T11:55:27.396Z,68.57
2022-11-22T11:56:27.292Z,68.48
2022-11-22T11:57:27.296Z,68.16
2022-11-22T11:58:27.292Z,68.48
2022-11-22T11:59:27.318Z,68.48
2022-11-22T12:00:27.262Z,67.83
2022-11-22T12:01:27.274Z,67.52
2022-11-22T12:02:27.312Z,67.59
2022-11-22T12:03:27.253Z,67.08
2022-11-22T12:04:27.270Z,66.94
2022-11-22T12:05:27.225Z,65.81
2022-11-22T12:06:27.189Z,65.99
2022-11-22T12:07:27.281Z,64.94
2022-11-22T12:08:27.161Z,64.22
2022-11-22T12:09:27.190Z,64.73
2022-11-22T12:10:27.175Z,64.60
2022-11-22T12:11:27.146Z,64.29
2022-11-22T12:12:27.121Z,63.13
2022-11-22T12:13:27.140Z,63.34
2022-11-22T12:14:37.752Z,62.62
2022-11-22T12:15:27.132Z,62.49
2022-11-22T12:16:27.088Z,61.77
2022-11-22T12:17:27.099Z,61.88
2022-11-22T12:18:27.055Z,62.18
2022-11-22T12:19:27.080Z,62.18
2022-11-22T12:20:27.062Z,62.29
2022-11-22T12:21:27.042Z,62.66
2022-11-22T12:22:48.151Z,61.44
2022-11-22T12:23:27.037Z,61.85
2022-11-22T12:48:23.138Z,61.77
2022-11-22T12:48:28.392Z,62.98
2022-11-22T12:48:33.548Z,66.53
2022-11-22T12:49:33.474Z,67.35
2022-11-22T12:50:33.450Z,66.84
2022-11-22T12:51:33.460Z,66.84
2022-11-22T12:52:33.500Z,67.25
2022-11-22T12:53:33.433Z,67.35
2022-11-22T12:54:33.617Z,67.08
2022-11-22T12:55:33.410Z,66.97
2022-11-22T12:56:34.205Z,66.97
2022-11-22T12:57:33.384Z,67.49
2022-11-22T12:58:33.351Z,67.69
2022-11-22T12:59:33.372Z,67.59
2022-11-22T13:00:33.336Z,67.93
2022-11-22T13:01:33.420Z,68.30
2022-11-22T13:02:33.318Z,68.82
2022-11-22T13:03:33.324Z,69.02
2022-11-22T13:04:33.612Z,68.92
2022-11-22T13:05:33.306Z,68.51
2022-11-22T13:06:33.276Z,68.82
2022-11-22T13:07:33.371Z,67.08
2022-11-22T13:08:33.251Z,66.70
2022-11-22T13:09:33.265Z,67.52
2022-11-22T13:10:33.225Z,68.44
2022-11-22T13:11:33.227Z,69.16
2022-11-22T13:12:33.209Z,68.96
2022-11-22T13:13:33.215Z,68.54
2022-11-22T13:14:33.480Z,67.62
2022-11-22T13:15:33.172Z,67.14
2022-11-22T13:16:33.159Z,67.65
2022-11-22T13:17:33.187Z,68.16